Flight Track Log - Related Links

Times and Time Zones

All times are in EDT time to prevent confusion due to time zone crossing. See the ASQ4283 flight status page for this flight to view local times or setup timezone preferences in your user account.

Time Position Orientation Groundspeed Altitude Reporting Facility
EDT Latitude Longitude Course Direction KTS MPH feet Rate Location/Type
Mon 04:06:40 PM 29.9617 -95.3436 279° West 161 185 700  Level Houston Center
Mon 04:07:53 PM 29.9114 -95.3906 219° Southwest 246 283 2,800 1,846 Climbing Houston Center
Mon 04:08:11 PM 29.9036 -95.4039 236° Southwest 242 278 3,500 3,164 Climbing Houston Center
Mon 04:08:48 PM 29.8725 -95.4483 231° Southwest 255 293 5,700 3,194 Climbing Houston Center
Mon 04:09:13 PM 29.8611 -95.4669 235° Southwest 251 289 6,800 2,414 Climbing Houston Center
Mon 04:10:00 PM 30.0704 -95.7518 276° West  Level Estimated
Mon 04:10:15 PM 29.8344 -95.5397 247° West 264 304 9,200  Level Houston Center
Mon 04:11:00 PM 30.0917 -95.8545 319° Northwest  Level Estimated
Mon 04:11:17 PM 29.8764 -95.6358 297° West 281 323 12,000  Level Houston Center
Mon 04:12:00 PM 30.1129 -95.9573 279° West  Level Estimated
Mon 04:12:19 PM 29.9158 -95.7178 299° West 292 336 14,100  Level Houston Center
Mon 04:13:21 PM 29.9725 -95.7928 311° West 308 354 15,900 919 Climbing Houston Center
Mon 04:14:23 PM 30.0183 -95.8728 304° West 301 346 16,000 194 Climbing Houston Center
Mon 04:15:25 PM 30.0375 -95.9722 283° West 316 364 16,300 768 Climbing Houston Center
Mon 04:16:28 PM 30.0647 -96.0869 285° West 339 390 17,600 1,248 Climbing Houston Center
Mon 04:17:30 PM 30.0892 -96.1953 285° West 348 400 18,900 1,403 Climbing Houston Center
Mon 04:18:32 PM 30.1092 -96.3050 282° West 351 404 20,500 1,548 Climbing Houston Center
Mon 04:19:34 PM 30.1267 -96.4286 279° West 353 406 22,100 1,452 Climbing Houston Center
Mon 04:20:36 PM 30.1439 -96.5397 280° West 349 402 23,500 1,403 Climbing Houston Center
Mon 04:21:38 PM 30.1636 -96.6517 282° West 351 404 25,000 1,548 Climbing Houston Center
Mon 04:22:40 PM 30.1900 -96.7794 283° West 347 399 26,700 1,548 Climbing Houston Center
Mon 04:23:42 PM 30.2117 -96.8897 283° West 348 400 28,200 1,412 Climbing Houston Center
Mon 04:25:00 PM 30.2409 -97.0306 282° West  Level Estimated
Mon 04:25:47 PM 30.2533 -97.1067 282° West 340 391 31,100  Level Houston Center
Mon 04:26:49 PM 30.2750 -97.2136 283° West 339 390 32,600 1,355 Climbing Houston Center
Mon 04:27:51 PM 30.2944 -97.3194 282° West 333 383 33,900 677 Climbing Houston Center
Mon 04:28:53 PM 30.3158 -97.4267 283° West 337 388 34,000 48 Climbing Houston Center
Mon 04:29:55 PM 30.3383 -97.5458 282° West 369 425 34,000  Level Houston Center
Mon 04:30:57 PM 30.3653 -97.6894 282° West 385 443 34,000  Level Houston Center
Mon 04:31:59 PM 30.3875 -97.8142 282° West 390 449 34,000  Level Houston Center
Mon 04:33:02 PM 30.4122 -97.9381 283° West 390 449 34,000  Level Houston Center
Mon 04:34:04 PM 30.4344 -98.0614 282° West 389 448 34,000  Level Houston Center
Mon 04:35:06 PM 30.4575 -98.1844 282° West 388 447 34,000  Level Houston Center
Mon 04:36:08 PM 30.4803 -98.3075 282° West 387 445 34,000  Level Houston Center
Mon 04:37:10 PM 30.5033 -98.4308 282° West 387 445 34,000  Level Houston Center
Mon 04:38:12 PM 30.5258 -98.5536 282° West 385 443 34,000  Level Houston Center
Mon 04:39:14 PM 30.5514 -98.6992 282° West 390 449 34,000  Level Houston Center
Mon 04:40:17 PM 30.5750 -98.8233 282° West 391 450 34,000  Level Houston Center
Mon 04:41:19 PM 30.5972 -98.9481 282° West 391 450 34,000  Level Houston Center
Mon 04:42:21 PM 30.6197 -99.0725 282° West 392 451 34,000  Level Houston Center
Mon 04:43:23 PM 30.6411 -99.1892 282° West 392 451 34,000  Level Houston Center
Mon 04:44:25 PM 30.6669 -99.3364 282° West 390 449 34,000  Level Houston Center
Mon 04:45:27 PM 30.6875 -99.4608 281° West 392 451 34,000  Level Houston Center
Mon 04:46:29 PM 30.7092 -99.5842 282° West 392 451 34,000  Level Houston Center
Mon 04:47:31 PM 30.7314 -99.7075 282° West 393 452 34,000  Level Houston Center
Mon 04:48:33 PM 30.7517 -99.8306 281° West 391 450 34,000  Level Houston Center
Mon 04:49:36 PM 30.7761 -99.9783 281° West 391 450 34,000  Level Houston Center
Mon 04:50:38 PM 30.7975 -100.1022 281° West 392 451 34,000  Level Houston Center
Mon 04:51:40 PM 30.8186 -100.2256 281° West 391 450 34,000  Level Houston Center
Mon 04:52:42 PM 30.8394 -100.3503 281° West 393 452 34,000  Level Houston Center
Mon 04:53:44 PM 30.8594 -100.4739 281° West 392 451 34,000  Level Houston Center
Mon 04:54:46 PM 30.8847 -100.6236 281° West 395 455 34,000  Level Houston Center
Mon 04:55:48 PM 30.9050 -100.7475 281° West 393 452 34,000  Level Houston Center
Mon 04:56:50 PM 30.9250 -100.8725 281° West 394 453 34,000  Level Houston Center
Mon 04:57:52 PM 30.9453 -100.9961 281° West 391 450 34,000  Level Houston Center
Mon 04:58:55 PM 30.9644 -101.1208 280° West 392 451 34,000  Level Houston Center
Mon 04:59:57 PM 30.9847 -101.2450 281° West 392 451 34,000  Level Houston Center
Mon 05:00:59 PM 31.0064 -101.3833 280° West 390 449 34,000  Level Houston Center
Mon 05:02:01 PM 31.0267 -101.5083 281° West 392 451 34,000  Level Houston Center
Mon 05:03:03 PM 31.0464 -101.6311 281° West 389 448 34,000  Level Houston Center
Mon 05:04:05 PM 31.0694 -101.7833 280° West 394 453 34,000  Level Houston Center
Mon 05:05:07 PM 31.0889 -101.9072 280° West 391 450 34,000  Level Houston Center
Mon 05:06:09 PM 31.1075 -102.0311 280° West 388 447 34,000  Level Houston Center
Mon 05:07:12 PM 31.1261 -102.1569 280° West 390 449 34,000  Level Houston Center
Mon 05:08:14 PM 31.1444 -102.2839 280° West 390 449 34,000 -202 Level Houston Center
Mon 05:09:11 PM 31.1614 -102.3961 280° West 390 449 33,600 -1,109 Descending Albuquerque Center
Mon 05:10:13 PM 31.1831 -102.5414 280° West 382 440 31,800 -1,597 Descending Albuquerque Center
Mon 05:11:15 PM 31.2008 -102.6628 280° West 389 448 30,300 -871 Descending Albuquerque Center
Mon 05:12:17 PM 31.2206 -102.7925 280° West 401 461 30,000 -146 Descending Albuquerque Center
Mon 05:13:18 PM 31.2392 -102.9197 280° West 400 460 30,000  Level Albuquerque Center
Mon 05:14:20 PM 31.2578 -103.0472 280° West 399 459 30,000  Level Albuquerque Center
Mon 05:15:22 PM 31.2786 -103.2019 279° West 401 461 30,000 -387 Level Albuquerque Center
Mon 05:16:24 PM 31.2975 -103.3294 280° West 401 461 29,200 -919 Descending Albuquerque Center
Mon 05:17:26 PM 31.3150 -103.4600 279° West 404 465 28,100 -581 Descending Albuquerque Center
Mon 05:18:28 PM 31.3344 -103.5942 280° West 414 476 28,000 -48 Descending Albuquerque Center
Mon 05:19:30 PM 31.3528 -103.7272 279° West 416 479 28,000  Level Albuquerque Center
Mon 05:20:32 PM 31.3747 -103.8772 280° West 410 472 28,000  Level Albuquerque Center
Mon 05:21:34 PM 31.3928 -104.0061 279° West 406 467 28,000  Level Albuquerque Center
Mon 05:22:36 PM 31.4097 -104.1350 279° West 404 465 28,000  Level Albuquerque Center
Mon 05:23:38 PM 31.4281 -104.2636 280° West 402 463 28,000 -48 Level Albuquerque Center
Mon 05:24:40 PM 31.4458 -104.3917 279° West 402 463 27,900  Descending Albuquerque Center
Mon 05:25:42 PM 31.4597 -104.5203 277° West 401 461 28,000 48 Climbing Albuquerque Center
Mon 05:26:44 PM 31.4767 -104.6742 277° West 400 460 28,000  Level Albuquerque Center
Mon 05:27:46 PM 31.4900 -104.8042 277° West 403 464 28,000 -341 Level Albuquerque Center
Mon 05:28:47 PM 31.5036 -104.9322 277° West 401 461 27,300 -1,268 Descending Albuquerque Center
Mon 05:29:49 PM 31.5169 -105.0653 277° West 408 470 25,400 -1,935 Descending Albuquerque Center
Mon 05:30:51 PM 31.5297 -105.1936 277° West 406 467 23,300 -2,226 Descending Albuquerque Center
Mon 05:31:53 PM 31.5447 -105.3433 277° West 392 451 20,800 -2,300 Descending Albuquerque Center
Mon 05:32:51 PM 31.5531 -105.4617 275° West 382 440 18,700 -2,129 Descending Albuquerque Center
Mon 05:32:55 PM 31.5558 -105.4667 303° West 385 443 18,600 -2,308 Descending Albuquerque Center
Mon 05:33:04 PM 31.5564 -105.4908 272° West 381 438 18,200 -2,261 Descending Albuquerque Center
Mon 05:34:04 PM 31.5689 -105.6125 277° West 377 434 16,000 -1,884 Descending Albuquerque Center
Mon 05:35:05 PM 31.5817 -105.7267 278° West 354 407 14,400 -1,487 Descending Albuquerque Center
Mon 05:36:01 PM 31.5969 -105.8172 281° West 356 410 13,100 -1,500 Descending Albuquerque Center
Mon 05:36:05 PM 31.6067 -105.8375 299° West 361 415 12,900 -1,742 Descending Albuquerque Center
Mon 05:37:03 PM 31.6469 -105.9164 301° West 353 406 11,300 -1,770 Descending Albuquerque Center
Mon 05:37:06 PM 31.6547 -105.9353 296° West 343 395 11,100 -1,869 Descending Albuquerque Center
Mon 05:38:04 PM 31.6964 -106.0178 301° West 296 341 9,400 -1,672 Descending Albuquerque Center
Mon 05:38:07 PM 31.6956 -106.0172 150° Southeast 278 320 9,400 -2,226 Level Albuquerque Center
Mon 05:39:06 PM 31.7344 -106.0944 301° West 276 318 7,100 -2,400 Descending Albuquerque Center
Mon 05:39:07 PM 31.7367 -106.1019 289° West 270 311 7,000 -1,548 Descending Albuquerque Center
Mon 05:40:08 PM 31.7600 -106.1744 291° West 264 304 5,500 -893 Descending Albuquerque Center
Mon 05:41:08 PM 31.7869 -106.2592 291° West 253 291 5,200 -387 Descending Albuquerque Center
Mon 05:41:10 PM 31.7856 -106.2531 105° East 259 298 5,100 -492 Descending Albuquerque Center
Mon 05:42:09 PM 31.7994 -106.3286 282° West 198 228 4,700 -387 Descending Albuquerque Center
Mon 05:42:12 PM 31.7986 -106.3233 101° East 221 254 4,700 -646 Level Albuquerque Center
Mon 05:43:14 PM 31.8022 -106.3689 275° West 157 181 4,000 -677 Descending Albuquerque Center

Login

Don't have an account? Register now (free) for customized features, flight alerts, and more!